Terminal Aerodrome Forecast
Issued by NWS

Home | Current Version | Previous Version | Graphics & Text | Print | Product List | Glossary On
Versions: 1 2 3 4 5 6 7 8 9 10 11 12 13 14 15 16 17 18 19 20 21 22 23 24 25 26 27 28 29 30 31
000
FTUS45 KGGW 252300
TAFOLF
TAF
KOLF 252333Z 2600/2624 25009KT P6SM SKC
     FM260200 VRB05KT P6SM SCT100
     FM260700 VRB03KT P6SM VCTS BKN100CB
     FM261400 32006KT P6SM SCT100=

USA.gov is the U.S. government's official web portal to all federal, state and local government web resources and services.